createdAt,value
2019-04-26T00:03:56.225Z,4.20
2019-04-26T00:09:22.114Z,5.17
2019-04-26T00:14:38.849Z,4.70
2019-04-26T00:19:44.996Z,4.60
2019-04-26T00:24:51.428Z,4.57
2019-04-26T00:29:57.586Z,4.80
2019-04-26T00:35:03.789Z,4.80
2019-04-26T00:40:11.687Z,5.03
2019-04-26T00:45:20.986Z,4.30
2019-04-26T00:50:29.187Z,4.70
2019-04-26T00:55:36.918Z,4.80
2019-04-26T01:00:43.049Z,4.73
2019-04-26T01:05:59.521Z,5.07
2019-04-26T01:10:57.103Z,5.47
2019-04-26T01:16:03.338Z,5.00
2019-04-26T01:21:11.253Z,4.87
2019-04-26T01:26:23.280Z,5.67
2019-04-26T01:31:31.237Z,5.47
2019-04-26T01:36:39.123Z,5.55
2019-04-26T01:41:50.864Z,5.60
2019-04-26T01:46:57.668Z,5.37
2019-04-26T01:52:08.585Z,5.67
2019-04-26T01:57:15.841Z,5.87
2019-04-26T02:02:36.051Z,6.33
2019-04-26T02:07:42.314Z,6.20
2019-04-26T02:12:50.240Z,6.28
2019-04-26T02:17:58.212Z,5.23
2019-04-26T02:23:14.999Z,5.73
2019-04-26T02:28:21.136Z,5.42
2019-04-26T02:33:29.156Z,5.85
2019-04-26T02:38:36.634Z,5.43
2019-04-26T02:43:49.316Z,5.53
2019-04-26T02:49:21.304Z,4.50
2019-04-26T02:54:45.862Z,4.70
2019-04-26T02:59:57.191Z,4.03
2019-04-26T03:05:07.211Z,4.30
2019-04-26T03:10:14.747Z,4.35
2019-04-26T03:15:42.554Z,3.60
2019-04-26T03:20:55.480Z,3.95
2019-04-26T03:26:43.464Z,4.03
2019-04-26T03:32:08.473Z,3.77
2019-04-26T03:37:55.014Z,4.40
2019-04-26T03:43:39.060Z,4.03
2019-04-26T03:48:59.783Z,4.13
2019-04-26T03:54:13.474Z,4.20
2019-04-26T04:00:06.951Z,4.28
2019-04-26T04:05:30.651Z,4.83
2019-04-26T04:10:47.552Z,4.73
2019-04-26T04:15:54.466Z,4.60
2019-04-26T04:21:42.574Z,4.50
2019-04-26T04:27:20.854Z,4.37
2019-04-26T04:32:43.780Z,4.30
2019-04-26T04:38:09.308Z,5.03
2019-04-26T04:43:30.741Z,5.00
2019-04-26T04:49:09.074Z,5.07
2019-04-26T04:54:21.016Z,5.03
2019-04-26T04:59:34.744Z,4.73
2019-04-26T05:05:10.695Z,4.90
2019-04-26T05:10:34.794Z,4.67
2019-04-26T05:16:16.455Z,5.00
2019-04-26T05:21:48.618Z,5.17
2019-04-26T05:27:55.174Z,5.00
2019-04-26T05:33:33.807Z,5.27
2019-04-26T05:38:51.658Z,4.40
2019-04-26T05:44:33.776Z,4.87
2019-04-26T05:50:16.087Z,4.57
2019-04-26T05:56:17.269Z,4.50
2019-04-26T06:02:14.535Z,5.47
2019-04-26T06:07:58.532Z,5.20
2019-04-26T06:13:41.059Z,5.13
2019-04-26T06:19:15.410Z,5.17
2019-04-26T06:24:36.802Z,5.40
2019-04-26T06:30:08.805Z,5.10
2019-04-26T06:35:20.593Z,5.07
2019-04-26T06:41:04.406Z,5.47
2019-04-26T06:47:01.803Z,5.65
2019-04-26T06:52:12.909Z,5.27
2019-04-26T06:58:11.116Z,5.93
2019-04-26T07:04:00.041Z,6.20
2019-04-26T07:09:11.506Z,5.60
2019-04-26T07:14:42.251Z,5.87
2019-04-26T07:20:38.432Z,6.05
2019-04-26T07:26:33.806Z,6.28
2019-04-26T07:31:52.248Z,5.53
2019-04-26T07:37:35.308Z,5.93
2019-04-26T07:43:23.846Z,6.00
2019-04-26T07:48:54.836Z,6.23
2019-04-26T07:54:46.517Z,5.73
2019-04-26T08:00:19.595Z,5.60
2019-04-26T08:05:39.603Z,6.33
2019-04-26T08:11:04.438Z,6.42
2019-04-26T08:16:42.349Z,5.75
2019-04-26T08:21:51.069Z,6.43
2019-04-26T08:27:13.613Z,6.45
2019-04-26T08:32:21.091Z,6.62
2019-04-26T08:37:52.613Z,6.37
2019-04-26T08:43:18.221Z,6.90
2019-04-26T08:48:34.529Z,6.67
2019-04-26T08:53:43.352Z,6.58
2019-04-26T08:58:53.134Z,6.57
2019-04-26T09:04:05.212Z,6.80
2019-04-26T09:09:21.178Z,6.58
2019-04-26T09:14:30.917Z,5.75
2019-04-26T09:19:37.082Z,5.63
2019-04-26T09:24:59.382Z,5.77
2019-04-26T09:30:34.068Z,5.60
2019-04-26T09:35:52.830Z,5.70
2019-04-26T09:41:00.569Z,5.80
2019-04-26T09:46:24.950Z,5.60
2019-04-26T09:51:34.780Z,5.07
2019-04-26T09:56:39.385Z,5.50
2019-04-26T10:01:45.710Z,5.90
2019-04-26T10:06:52.087Z,5.00
2019-04-26T10:12:03.944Z,5.33
2019-04-26T10:17:17.454Z,4.80
2019-04-26T10:22:26.402Z,5.10
2019-04-26T10:27:36.476Z,4.87
2019-04-26T10:32:40.958Z,4.80
2019-04-26T10:37:48.050Z,4.90
2019-04-26T10:42:55.158Z,7.93
2019-04-26T10:48:02.441Z,5.03
2019-04-26T10:53:33.452Z,4.12
2019-04-26T10:58:47.211Z,5.10
2019-04-26T11:03:53.501Z,4.28
2019-04-26T11:08:59.798Z,4.33
2019-04-26T11:14:06.278Z,5.40
2019-04-26T11:19:12.509Z,4.70
2019-04-26T11:24:19.427Z,6.67
2019-04-26T11:29:28.803Z,5.10
2019-04-26T11:34:34.653Z,5.63
2019-04-26T11:39:42.138Z,4.73
2019-04-26T11:44:48.549Z,5.63
2019-04-26T11:49:54.703Z,4.67
2019-04-26T11:55:01.105Z,4.77
2019-04-26T12:00:09.639Z,5.05
2019-04-26T12:05:40.941Z,4.70
2019-04-26T12:10:47.300Z,4.57
2019-04-26T12:15:53.704Z,4.27
2019-04-26T12:21:01.049Z,4.90
2019-04-26T12:26:07.814Z,4.20
2019-04-26T12:31:15.256Z,4.37
2019-04-26T12:36:22.844Z,4.00
2019-04-26T12:41:39.875Z,5.00
2019-04-26T12:46:50.622Z,4.60
2019-04-26T12:51:57.084Z,4.70
2019-04-26T12:57:05.798Z,4.13
2019-04-26T13:02:12.519Z,3.85
2019-04-26T13:07:24.065Z,4.10
2019-04-26T13:12:37.979Z,4.13
2019-04-26T13:17:51.892Z,4.30
2019-04-26T13:22:58.189Z,4.13
2019-04-26T13:28:04.452Z,4.40
2019-04-26T13:33:10.758Z,3.95
2019-04-26T13:38:16.928Z,3.72
2019-04-26T13:43:26.961Z,3.90
2019-04-26T13:48:46.925Z,3.70
2019-04-26T13:53:54.426Z,3.93
2019-04-26T13:59:00.659Z,3.87
2019-04-26T14:04:07.564Z,3.57
2019-04-26T14:09:15.110Z,3.53
2019-04-26T14:14:21.316Z,3.30
2019-04-26T14:19:27.497Z,3.10
2019-04-26T14:24:47.928Z,2.87
2019-04-26T14:29:54.167Z,3.30
2019-04-26T14:35:01.474Z,2.30
2019-04-26T14:40:17.195Z,2.33
2019-04-26T14:45:23.246Z,2.37
2019-04-26T14:50:28.170Z,2.67
2019-04-26T14:55:32.596Z,2.00
2019-04-26T15:00:40.428Z,2.30
2019-04-26T15:06:05.776Z,1.60
2019-04-26T15:11:12.824Z,2.33
2019-04-26T15:16:22.043Z,4.40
2019-04-26T15:21:27.301Z,2.17
2019-04-26T15:26:34.991Z,3.10
2019-04-26T15:31:41.601Z,2.80
2019-04-26T15:36:49.492Z,2.37
2019-04-26T15:42:15.070Z,1.80
2019-04-26T15:47:44.166Z,2.08
2019-04-26T15:52:50.448Z,1.80
2019-04-26T15:57:56.764Z,2.17
2019-04-26T16:03:07.412Z,2.10
2019-04-26T16:08:13.923Z,2.80
2019-04-26T16:13:21.351Z,2.80
2019-04-26T16:18:28.564Z,2.63
2019-04-26T16:23:41.101Z,2.43
2019-04-26T16:29:04.812Z,1.97
2019-04-26T16:34:14.239Z,1.67
2019-04-26T16:39:20.816Z,2.10
2019-04-26T16:44:29.971Z,1.97
2019-04-26T16:49:42.064Z,1.90
2019-04-26T16:54:43.131Z,2.07
2019-04-26T16:59:56.950Z,1.90
2019-04-26T17:05:04.655Z,1.98
2019-04-26T17:10:06.217Z,2.20
2019-04-26T17:15:13.292Z,2.10
2019-04-26T17:20:19.551Z,1.93
2019-04-26T17:25:43.732Z,2.00
2019-04-26T17:30:50.177Z,2.27
2019-04-26T17:35:56.711Z,1.93
2019-04-26T17:41:06.479Z,2.40
2019-04-26T17:46:14.499Z,2.30
2019-04-26T17:51:22.944Z,2.40
2019-04-26T17:56:31.405Z,2.10
2019-04-26T18:01:45.346Z,2.30
2019-04-26T18:06:45.396Z,2.80
2019-04-26T18:11:55.398Z,2.60
2019-04-26T18:17:06.400Z,2.10
2019-04-26T18:22:19.903Z,2.00
2019-04-26T18:27:29.910Z,2.47
2019-04-26T18:32:42.280Z,2.60
2019-04-26T18:37:42.716Z,2.27
2019-04-26T18:42:49.015Z,2.40
2019-04-26T18:48:00.911Z,2.37
2019-04-26T18:53:36.727Z,2.60
2019-04-26T18:58:39.256Z,4.67
2019-04-26T19:03:45.409Z,5.17
2019-04-26T19:08:57.586Z,8.73
2019-04-26T19:14:21.918Z,8.37
2019-04-26T19:19:47.150Z,4.40
2019-04-26T19:24:56.607Z,5.83
2019-04-26T19:30:03.644Z,3.40
2019-04-26T19:35:13.910Z,3.60
2019-04-26T19:40:17.500Z,4.57
2019-04-26T19:45:46.211Z,5.43
2019-04-26T19:50:53.815Z,6.10
2019-04-26T19:56:10.867Z,5.77
2019-04-26T20:01:20.927Z,5.70
2019-04-26T20:06:26.799Z,4.50
2019-04-26T20:11:33.037Z,4.50
2019-04-26T20:16:40.804Z,4.60
2019-04-26T20:21:49.673Z,4.33
2019-04-26T20:26:54.873Z,3.87
2019-04-26T20:32:29.123Z,3.97
2019-04-26T20:37:35.193Z,3.83
2019-04-26T20:42:42.232Z,3.87
2019-04-26T20:47:51.952Z,3.80
2019-04-26T20:53:00.749Z,2.87
2019-04-26T20:58:08.512Z,2.80
2019-04-26T21:03:23.052Z,2.80
2019-04-26T21:08:25.683Z,2.87
2019-04-26T21:13:30.912Z,2.57
2019-04-26T21:18:39.960Z,2.80
2019-04-26T21:23:46.387Z,2.90
2019-04-26T21:29:03.623Z,2.90
2019-04-26T21:34:15.436Z,2.20
2019-04-26T21:39:24.903Z,2.37
2019-04-26T21:44:31.235Z,2.50
2019-04-26T21:49:38.130Z,2.40
2019-04-26T21:54:44.393Z,2.23
2019-04-26T21:59:50.577Z,2.70
2019-04-26T22:04:56.924Z,2.30
2019-04-26T22:10:18.809Z,2.50
2019-04-26T22:15:49.102Z,2.50
2019-04-26T22:21:01.746Z,2.40
2019-04-26T22:26:09.647Z,2.43
2019-04-26T22:31:15.898Z,2.47
2019-04-26T22:36:23.306Z,2.50
2019-04-26T22:41:29.784Z,2.70
2019-04-26T22:46:50.798Z,2.90
2019-04-26T22:51:56.921Z,2.60
2019-04-26T22:57:03.947Z,2.17
2019-04-26T23:02:13.766Z,2.17
2019-04-26T23:07:24.701Z,2.13
2019-04-26T23:13:04.590Z,2.10
2019-04-26T23:18:43.862Z,2.10
2019-04-26T23:23:50.008Z,1.87
2019-04-26T23:28:56.199Z,2.07
2019-04-26T23:34:02.965Z,1.92
2019-04-26T23:39:12.075Z,1.90
2019-04-26T23:44:17.529Z,1.77
2019-04-26T23:49:25.300Z,1.63
2019-04-26T23:54:32.341Z,1.90
2019-04-26T23:59:39.515Z,1.50
